| State | Missouri | Latest | High (559 cfs) | |
| River | Spring River | Rating | Observed | Estimated |
| Updated | 2026-05-05 6:45 (46 minutes ago) | Flood - The river is flooding. Obstacles can be treacherous or deadly. The river should be avoided at this stage for casual trips and definitely for the inexperienced. Trips should be attempted only with protective gear and equipment.Flood | (none) | 1770 |
| Discharge | 559 cfs (median: 473 cfs) | High - The river is high and potentially dangerous, especially for the young and / or inexperienced. Normal stream obstacles are sometimes difficult to navigate. Extended distances can be attempted, but canoe travel may not be advisable.High | (none) | 477 |
| Height | 3.97 feet | Good - Conditions are ideal for a canoe or kayak. Boats typically will drag on fewer than one-quarter of riffles, if at all, and portages are unnecessary or rare. Normal float lengths can be attempted without a problem.Good | (none) | 356 |
| Trend | Rising (falling over 24 hours) | Low - River is low but can still be floated. Some riffles are okay but most come with significant dragging and might need a portage. Float lengths should be reduced to accommodate low flow, dragging, and portages.Low | (none) | 202 |
| USGS | USGS Site ( Duck Duck Go Maps) | Poor - River is too low to float comfortably. Most or all riffles will drag or must be portaged and some obstacles (such as slick shelf rock) cause undue problems. Avoid the river at this stage for casual paddling trips.Poor | (none) | 47 |
A total of 2 rows are displayed.
| Miles | 11.3 |
| Trips | 2 |
| People | 3 |
| Dates | 2 |
| Years | 2 |
| Months | 2 |
| Rows | 2 |
| Sources | 1 |
BLG - Bluegill
CCF - Channel Catfish
CP - Chain Pickerel
FWD - Freshwater Drum
GSF - Green Sunfish
KSB - Kentucky Spotted Bass
LMB - Largemouth Bass
LSF - Longear Sunfish
RB - Rock Bass / Goggle Eye
RSF - Redear Sunfish
RT - Rainbow Trout
SMB - Smallmouth Bass
WB - White Bass
WF - Whitefish
WL - WalleyeThe classic River Trips application is still available for use. It is updated with the new system using a data retrofit. It is no longer maintained. The original River Trips application is no longer updated (as of 1 Dec 2016) but can be checked for errors or for the condition of the data before it was converted to the new system.
| Observation | Height | Discharge | Maximum Discharge | Minimum Discharge | Mean Discharge | P05 | P10 | P20 | P25 | P50 (Median) | P75 | P80 | P90 | P95 |
|---|---|---|---|---|---|---|---|---|---|---|---|---|---|---|
| 2026-05-05 06:45 | 3.97 | 559 | 13400 (2022) | 109 (2014) | 969 | 116 | 184 | 260 | 277 | 473 | 985 | 1020 | 1400 | 2870 |
| 2026-05-05 05:45 | 3.96 | 551 | 13400 (2022) | 109 (2014) | 969 | 116 | 184 | 260 | 277 | 473 | 985 | 1020 | 1400 | 2870 |
| 2026-05-05 04:45 | 3.97 | 559 | 13400 (2022) | 109 (2014) | 969 | 116 | 184 | 260 | 277 | 473 | 985 | 1020 | 1400 | 2870 |
| 2026-05-05 03:45 | 3.97 | 559 | 13400 (2022) | 109 (2014) | 969 | 116 | 184 | 260 | 277 | 473 | 985 | 1020 | 1400 | 2870 |
| 2026-05-05 02:45 | 4.00 | 581 | 13400 (2022) | 109 (2014) | 969 | 116 | 184 | 260 | 277 | 473 | 985 | 1020 | 1400 | 2870 |
| 2026-05-05 01:45 | 3.96 | 551 | 13400 (2022) | 109 (2014) | 969 | 116 | 184 | 260 | 277 | 473 | 985 | 1020 | 1400 | 2870 |
| 2026-05-05 00:45 | 3.96 | 551 | 13400 (2022) | 109 (2014) | 969 | 116 | 184 | 260 | 277 | 473 | 985 | 1020 | 1400 | 2870 |
| 2026-05-04 23:45 | 3.96 | 551 | 13400 (2022) | 109 (2014) | 969 | 116 | 184 | 260 | 277 | 473 | 985 | 1020 | 1400 | 2870 |
| 2026-05-04 22:45 | 3.96 | 551 | 5340 (2017) | 115 (2014) | 793 | 122 | 184 | 274 | 282 | 417 | 1090 | 1150 | 1650 | 2290 |
| 2026-05-04 21:45 | 3.97 | 559 | 5340 (2017) | 115 (2014) | 793 | 122 | 184 | 274 | 282 | 417 | 1090 | 1150 | 1650 | 2290 |
| 2026-05-04 20:45 | 3.96 | 551 | 5340 (2017) | 115 (2014) | 793 | 122 | 184 | 274 | 282 | 417 | 1090 | 1150 | 1650 | 2290 |
| 2026-05-04 19:45 | 3.97 | 559 | 5340 (2017) | 115 (2014) | 793 | 122 | 184 | 274 | 282 | 417 | 1090 | 1150 | 1650 | 2290 |
| 2026-05-04 18:45 | 3.97 | 559 | 5340 (2017) | 115 (2014) | 793 | 122 | 184 | 274 | 282 | 417 | 1090 | 1150 | 1650 | 2290 |
| 2026-05-04 17:45 | 3.98 | 566 | 5340 (2017) | 115 (2014) | 793 | 122 | 184 | 274 | 282 | 417 | 1090 | 1150 | 1650 | 2290 |
| 2026-05-04 16:45 | 3.98 | 566 | 5340 (2017) | 115 (2014) | 793 | 122 | 184 | 274 | 282 | 417 | 1090 | 1150 | 1650 | 2290 |
| 2026-05-04 15:45 | 3.98 | 566 | 5340 (2017) | 115 (2014) | 793 | 122 | 184 | 274 | 282 | 417 | 1090 | 1150 | 1650 | 2290 |
| 2026-05-04 14:45 | 3.99 | 574 | 5340 (2017) | 115 (2014) | 793 | 122 | 184 | 274 | 282 | 417 | 1090 | 1150 | 1650 | 2290 |
| 2026-05-04 13:45 | 3.99 | 574 | 5340 (2017) | 115 (2014) | 793 | 122 | 184 | 274 | 282 | 417 | 1090 | 1150 | 1650 | 2290 |
| 2026-05-04 12:45 | 4.00 | 581 | 5340 (2017) | 115 (2014) | 793 | 122 | 184 | 274 | 282 | 417 | 1090 | 1150 | 1650 | 2290 |
| 2026-05-04 11:45 | 4.00 | 581 | 5340 (2017) | 115 (2014) | 793 | 122 | 184 | 274 | 282 | 417 | 1090 | 1150 | 1650 | 2290 |
| 2026-05-04 10:45 | 4.01 | 589 | 5340 (2017) | 115 (2014) | 793 | 122 | 184 | 274 | 282 | 417 | 1090 | 1150 | 1650 | 2290 |
| 2026-05-04 09:45 | 4.01 | 589 | 5340 (2017) | 115 (2014) | 793 | 122 | 184 | 274 | 282 | 417 | 1090 | 1150 | 1650 | 2290 |
| 2026-05-04 08:45 | 4.01 | 589 | 5340 (2017) | 115 (2014) | 793 | 122 | 184 | 274 | 282 | 417 | 1090 | 1150 | 1650 | 2290 |
| 2026-05-04 07:45 | 4.01 | 589 | 5340 (2017) | 115 (2014) | 793 | 122 | 184 | 274 | 282 | 417 | 1090 | 1150 | 1650 | 2290 |
| 2026-05-04 06:45 | 4.02 | 597 | 5340 (2017) | 115 (2014) | 793 | 122 | 184 | 274 | 282 | 417 | 1090 | 1150 | 1650 | 2290 |
| 2026-05-04 05:45 | 4.01 | 589 | 5340 (2017) | 115 (2014) | 793 | 122 | 184 | 274 | 282 | 417 | 1090 | 1150 | 1650 | 2290 |
| 2026-05-04 04:45 | 4.02 | 597 | 5340 (2017) | 115 (2014) | 793 | 122 | 184 | 274 | 282 | 417 | 1090 | 1150 | 1650 | 2290 |
| 2026-05-04 03:45 | 4.02 | 597 | 5340 (2017) | 115 (2014) | 793 | 122 | 184 | 274 | 282 | 417 | 1090 | 1150 | 1650 | 2290 |
| 2026-05-04 02:45 | 4.03 | 604 | 5340 (2017) | 115 (2014) | 793 | 122 | 184 | 274 | 282 | 417 | 1090 | 1150 | 1650 | 2290 |
| 2026-05-04 01:45 | 4.03 | 604 | 5340 (2017) | 115 (2014) | 793 | 122 | 184 | 274 | 282 | 417 | 1090 | 1150 | 1650 | 2290 |
| 2026-05-04 00:45 | 4.03 | 604 | 5340 (2017) | 115 (2014) | 793 | 122 | 184 | 274 | 282 | 417 | 1090 | 1150 | 1650 | 2290 |
| 2026-05-03 23:45 | 4.03 | 604 | 5340 (2017) | 115 (2014) | 793 | 122 | 184 | 274 | 282 | 417 | 1090 | 1150 | 1650 | 2290 |
| 2026-05-03 22:45 | 4.04 | 612 | 4320 (2017) | 119 (2014) | 738 | 122 | 191 | 278 | 293 | 434 | 1230 | 1250 | 1430 | 1620 |
| 2026-05-03 21:45 | 4.04 | 612 | 4320 (2017) | 119 (2014) | 738 | 122 | 191 | 278 | 293 | 434 | 1230 | 1250 | 1430 | 1620 |
| 2026-05-03 20:45 | 4.04 | 612 | 4320 (2017) | 119 (2014) | 738 | 122 | 191 | 278 | 293 | 434 | 1230 | 1250 | 1430 | 1620 |
| 2026-05-03 19:45 | 4.04 | 612 | 4320 (2017) | 119 (2014) | 738 | 122 | 191 | 278 | 293 | 434 | 1230 | 1250 | 1430 | 1620 |
| 2026-05-03 18:45 | 4.06 | 620 | 4320 (2017) | 119 (2014) | 738 | 122 | 191 | 278 | 293 | 434 | 1230 | 1250 | 1430 | 1620 |
| 2026-05-03 17:45 | 4.06 | 620 | 4320 (2017) | 119 (2014) | 738 | 122 | 191 | 278 | 293 | 434 | 1230 | 1250 | 1430 | 1620 |
| 2026-05-03 16:45 | 4.07 | 628 | 4320 (2017) | 119 (2014) | 738 | 122 | 191 | 278 | 293 | 434 | 1230 | 1250 | 1430 | 1620 |
| 2026-05-03 15:45 | 4.07 | 628 | 4320 (2017) | 119 (2014) | 738 | 122 | 191 | 278 | 293 | 434 | 1230 | 1250 | 1430 | 1620 |
| 2026-05-03 14:45 | 4.07 | 628 | 4320 (2017) | 119 (2014) | 738 | 122 | 191 | 278 | 293 | 434 | 1230 | 1250 | 1430 | 1620 |
| 2026-05-03 13:45 | 4.08 | 636 | 4320 (2017) | 119 (2014) | 738 | 122 | 191 | 278 | 293 | 434 | 1230 | 1250 | 1430 | 1620 |
| 2026-05-03 12:45 | 4.08 | 636 | 4320 (2017) | 119 (2014) | 738 | 122 | 191 | 278 | 293 | 434 | 1230 | 1250 | 1430 | 1620 |
| 2026-05-03 11:45 | 4.08 | 636 | 4320 (2017) | 119 (2014) | 738 | 122 | 191 | 278 | 293 | 434 | 1230 | 1250 | 1430 | 1620 |
| 2026-05-03 10:45 | 4.09 | 644 | 4320 (2017) | 119 (2014) | 738 | 122 | 191 | 278 | 293 | 434 | 1230 | 1250 | 1430 | 1620 |
| 2026-05-03 09:45 | 4.09 | 644 | 4320 (2017) | 119 (2014) | 738 | 122 | 191 | 278 | 293 | 434 | 1230 | 1250 | 1430 | 1620 |
| 2026-05-03 08:45 | 4.10 | 652 | 4320 (2017) | 119 (2014) | 738 | 122 | 191 | 278 | 293 | 434 | 1230 | 1250 | 1430 | 1620 |
| 2026-05-03 07:45 | 4.10 | 652 | 4320 (2017) | 119 (2014) | 738 | 122 | 191 | 278 | 293 | 434 | 1230 | 1250 | 1430 | 1620 |
| 2026-05-03 06:45 | 4.10 | 652 | 4320 (2017) | 119 (2014) | 738 | 122 | 191 | 278 | 293 | 434 | 1230 | 1250 | 1430 | 1620 |
| 2026-05-03 05:45 | 4.10 | 652 | 4320 (2017) | 119 (2014) | 738 | 122 | 191 | 278 | 293 | 434 | 1230 | 1250 | 1430 | 1620 |
| 2026-05-03 04:45 | 4.11 | 660 | 4320 (2017) | 119 (2014) | 738 | 122 | 191 | 278 | 293 | 434 | 1230 | 1250 | 1430 | 1620 |
| 2026-05-03 03:45 | 4.11 | 660 | 4320 (2017) | 119 (2014) | 738 | 122 | 191 | 278 | 293 | 434 | 1230 | 1250 | 1430 | 1620 |
| 2026-05-03 02:45 | 4.12 | 668 | 4320 (2017) | 119 (2014) | 738 | 122 | 191 | 278 | 293 | 434 | 1230 | 1250 | 1430 | 1620 |
| 2026-05-03 01:45 | 4.12 | 668 | 4320 (2017) | 119 (2014) | 738 | 122 | 191 | 278 | 293 | 434 | 1230 | 1250 | 1430 | 1620 |
| 2026-05-03 00:45 | 4.12 | 668 | 4320 (2017) | 119 (2014) | 738 | 122 | 191 | 278 | 293 | 434 | 1230 | 1250 | 1430 | 1620 |
| 2026-05-02 23:45 | 4.13 | 676 | 4320 (2017) | 119 (2014) | 738 | 122 | 191 | 278 | 293 | 434 | 1230 | 1250 | 1430 | 1620 |
| 2026-05-02 22:45 | 4.13 | 676 | 3700 (2019) | 125 (2014) | 800 | 141 | 202 | 295 | 302 | 451 | 1010 | 1510 | 2040 | 2590 |
| 2026-05-02 21:45 | 4.13 | 676 | 3700 (2019) | 125 (2014) | 800 | 141 | 202 | 295 | 302 | 451 | 1010 | 1510 | 2040 | 2590 |
| 2026-05-02 20:45 | 4.15 | 684 | 3700 (2019) | 125 (2014) | 800 | 141 | 202 | 295 | 302 | 451 | 1010 | 1510 | 2040 | 2590 |
| 2026-05-02 19:45 | 4.16 | 693 | 3700 (2019) | 125 (2014) | 800 | 141 | 202 | 295 | 302 | 451 | 1010 | 1510 | 2040 | 2590 |
| 2026-05-02 18:45 | 4.16 | 693 | 3700 (2019) | 125 (2014) | 800 | 141 | 202 | 295 | 302 | 451 | 1010 | 1510 | 2040 | 2590 |
| 2026-05-02 17:45 | 4.16 | 693 | 3700 (2019) | 125 (2014) | 800 | 141 | 202 | 295 | 302 | 451 | 1010 | 1510 | 2040 | 2590 |
| 2026-05-02 16:45 | 4.16 | 693 | 3700 (2019) | 125 (2014) | 800 | 141 | 202 | 295 | 302 | 451 | 1010 | 1510 | 2040 | 2590 |
| 2026-05-02 15:45 | 4.17 | 701 | 3700 (2019) | 125 (2014) | 800 | 141 | 202 | 295 | 302 | 451 | 1010 | 1510 | 2040 | 2590 |
| 2026-05-02 14:45 | 4.17 | 701 | 3700 (2019) | 125 (2014) | 800 | 141 | 202 | 295 | 302 | 451 | 1010 | 1510 | 2040 | 2590 |
| 2026-05-02 13:45 | 4.18 | 709 | 3700 (2019) | 125 (2014) | 800 | 141 | 202 | 295 | 302 | 451 | 1010 | 1510 | 2040 | 2590 |
| 2026-05-02 12:45 | 4.18 | 709 | 3700 (2019) | 125 (2014) | 800 | 141 | 202 | 295 | 302 | 451 | 1010 | 1510 | 2040 | 2590 |
| 2026-05-02 11:45 | 4.18 | 709 | 3700 (2019) | 125 (2014) | 800 | 141 | 202 | 295 | 302 | 451 | 1010 | 1510 | 2040 | 2590 |
| 2026-05-02 10:45 | 4.19 | 717 | 3700 (2019) | 125 (2014) | 800 | 141 | 202 | 295 | 302 | 451 | 1010 | 1510 | 2040 | 2590 |
| 2026-05-02 09:45 | 4.20 | 725 | 3700 (2019) | 125 (2014) | 800 | 141 | 202 | 295 | 302 | 451 | 1010 | 1510 | 2040 | 2590 |
| 2026-05-02 08:45 | 4.20 | 725 | 3700 (2019) | 125 (2014) | 800 | 141 | 202 | 295 | 302 | 451 | 1010 | 1510 | 2040 | 2590 |
| 2026-05-02 07:45 | 4.21 | 733 | 3700 (2019) | 125 (2014) | 800 | 141 | 202 | 295 | 302 | 451 | 1010 | 1510 | 2040 | 2590 |
| 2026-05-02 06:45 | 4.21 | 733 | 3700 (2019) | 125 (2014) | 800 | 141 | 202 | 295 | 302 | 451 | 1010 | 1510 | 2040 | 2590 |
| 2026-05-02 05:45 | 4.21 | 733 | 3700 (2019) | 125 (2014) | 800 | 141 | 202 | 295 | 302 | 451 | 1010 | 1510 | 2040 | 2590 |
| 2026-05-02 04:45 | 4.22 | 741 | 3700 (2019) | 125 (2014) | 800 | 141 | 202 | 295 | 302 | 451 | 1010 | 1510 | 2040 | 2590 |
| 2026-05-02 03:45 | 4.22 | 741 | 3700 (2019) | 125 (2014) | 800 | 141 | 202 | 295 | 302 | 451 | 1010 | 1510 | 2040 | 2590 |
| 2026-05-02 02:45 | 4.24 | 749 | 3700 (2019) | 125 (2014) | 800 | 141 | 202 | 295 | 302 | 451 | 1010 | 1510 | 2040 | 2590 |
| 2026-05-02 01:45 | 4.24 | 749 | 3700 (2019) | 125 (2014) | 800 | 141 | 202 | 295 | 302 | 451 | 1010 | 1510 | 2040 | 2590 |
| 2026-05-02 00:45 | 4.25 | 757 | 3700 (2019) | 125 (2014) | 800 | 141 | 202 | 295 | 302 | 451 | 1010 | 1510 | 2040 | 2590 |
| 2026-05-01 23:45 | 4.25 | 757 | 3700 (2019) | 125 (2014) | 800 | 141 | 202 | 295 | 302 | 451 | 1010 | 1510 | 2040 | 2590 |
| 2026-05-01 22:45 | 4.25 | 757 | 11000 (2019) | 128 (1977) | 1260 | 131 | 205 | 299 | 311 | 474 | 1010 | 1290 | 2530 | 8890 |
| 2026-05-01 21:45 | 4.26 | 765 | 11000 (2019) | 128 (1977) | 1260 | 131 | 205 | 299 | 311 | 474 | 1010 | 1290 | 2530 | 8890 |
| 2026-05-01 20:45 | 4.27 | 773 | 11000 (2019) | 128 (1977) | 1260 | 131 | 205 | 299 | 311 | 474 | 1010 | 1290 | 2530 | 8890 |
| 2026-05-01 19:45 | 4.27 | 773 | 11000 (2019) | 128 (1977) | 1260 | 131 | 205 | 299 | 311 | 474 | 1010 | 1290 | 2530 | 8890 |
| 2026-05-01 18:45 | 4.28 | 782 | 11000 (2019) | 128 (1977) | 1260 | 131 | 205 | 299 | 311 | 474 | 1010 | 1290 | 2530 | 8890 |
| 2026-05-01 17:45 | 4.29 | 789 | 11000 (2019) | 128 (1977) | 1260 | 131 | 205 | 299 | 311 | 474 | 1010 | 1290 | 2530 | 8890 |
| 2026-05-01 16:45 | 4.29 | 789 | 11000 (2019) | 128 (1977) | 1260 | 131 | 205 | 299 | 311 | 474 | 1010 | 1290 | 2530 | 8890 |
| 2026-05-01 15:45 | 4.30 | 797 | 11000 (2019) | 128 (1977) | 1260 | 131 | 205 | 299 | 311 | 474 | 1010 | 1290 | 2530 | 8890 |
| 2026-05-01 14:45 | 4.30 | 797 | 11000 (2019) | 128 (1977) | 1260 | 131 | 205 | 299 | 311 | 474 | 1010 | 1290 | 2530 | 8890 |
| 2026-05-01 13:45 | 4.31 | 805 | 11000 (2019) | 128 (1977) | 1260 | 131 | 205 | 299 | 311 | 474 | 1010 | 1290 | 2530 | 8890 |
| 2026-05-01 12:45 | 4.32 | 813 | 11000 (2019) | 128 (1977) | 1260 | 131 | 205 | 299 | 311 | 474 | 1010 | 1290 | 2530 | 8890 |
| 2026-05-01 11:45 | 4.32 | 813 | 11000 (2019) | 128 (1977) | 1260 | 131 | 205 | 299 | 311 | 474 | 1010 | 1290 | 2530 | 8890 |
| 2026-05-01 10:45 | 4.34 | 821 | 11000 (2019) | 128 (1977) | 1260 | 131 | 205 | 299 | 311 | 474 | 1010 | 1290 | 2530 | 8890 |
| 2026-05-01 09:45 | 4.34 | 821 | 11000 (2019) | 128 (1977) | 1260 | 131 | 205 | 299 | 311 | 474 | 1010 | 1290 | 2530 | 8890 |
| 2026-05-01 08:45 | 4.35 | 829 | 11000 (2019) | 128 (1977) | 1260 | 131 | 205 | 299 | 311 | 474 | 1010 | 1290 | 2530 | 8890 |
| 2026-05-01 07:45 | 4.36 | 838 | 11000 (2019) | 128 (1977) | 1260 | 131 | 205 | 299 | 311 | 474 | 1010 | 1290 | 2530 | 8890 |
| 2026-05-01 06:45 | 4.36 | 838 | 11000 (2019) | 128 (1977) | 1260 | 131 | 205 | 299 | 311 | 474 | 1010 | 1290 | 2530 | 8890 |
| 2026-05-01 05:45 | 4.37 | 846 | 11000 (2019) | 128 (1977) | 1260 | 131 | 205 | 299 | 311 | 474 | 1010 | 1290 | 2530 | 8890 |
| 2026-05-01 04:45 | 4.37 | 846 | 11000 (2019) | 128 (1977) | 1260 | 131 | 205 | 299 | 311 | 474 | 1010 | 1290 | 2530 | 8890 |
| 2026-05-01 03:45 | 4.37 | 846 | 11000 (2019) | 128 (1977) | 1260 | 131 | 205 | 299 | 311 | 474 | 1010 | 1290 | 2530 | 8890 |
| 2026-05-01 02:45 | 4.38 | 854 | 11000 (2019) | 128 (1977) | 1260 | 131 | 205 | 299 | 311 | 474 | 1010 | 1290 | 2530 | 8890 |
| 2026-05-01 01:45 | 4.39 | 862 | 11000 (2019) | 128 (1977) | 1260 | 131 | 205 | 299 | 311 | 474 | 1010 | 1290 | 2530 | 8890 |
| 2026-05-01 00:45 | 4.40 | 870 | 11000 (2019) | 128 (1977) | 1260 | 131 | 205 | 299 | 311 | 474 | 1010 | 1290 | 2530 | 8890 |
| 2026-04-30 23:45 | 4.40 | 870 | 11000 (2019) | 128 (1977) | 1260 | 131 | 205 | 299 | 311 | 474 | 1010 | 1290 | 2530 | 8890 |
| 2026-04-30 22:45 | 4.41 | 878 | 23300 (2017) | 100 (2006) | 1290 | 109 | 203 | 297 | 315 | 468 | 948 | 1120 | 1850 | 3830 |
| 2026-04-30 21:45 | 4.43 | 886 | 23300 (2017) | 100 (2006) | 1290 | 109 | 203 | 297 | 315 | 468 | 948 | 1120 | 1850 | 3830 |
| 2026-04-30 20:45 | 4.44 | 894 | 23300 (2017) | 100 (2006) | 1290 | 109 | 203 | 297 | 315 | 468 | 948 | 1120 | 1850 | 3830 |
| 2026-04-30 19:45 | 4.44 | 894 | 23300 (2017) | 100 (2006) | 1290 | 109 | 203 | 297 | 315 | 468 | 948 | 1120 | 1850 | 3830 |
| 2026-04-30 18:45 | 4.45 | 902 | 23300 (2017) | 100 (2006) | 1290 | 109 | 203 | 297 | 315 | 468 | 948 | 1120 | 1850 | 3830 |
| 2026-04-30 17:45 | 4.46 | 910 | 23300 (2017) | 100 (2006) | 1290 | 109 | 203 | 297 | 315 | 468 | 948 | 1120 | 1850 | 3830 |
| 2026-04-30 16:45 | 4.47 | 918 | 23300 (2017) | 100 (2006) | 1290 | 109 | 203 | 297 | 315 | 468 | 948 | 1120 | 1850 | 3830 |
| 2026-04-30 15:45 | 4.48 | 926 | 23300 (2017) | 100 (2006) | 1290 | 109 | 203 | 297 | 315 | 468 | 948 | 1120 | 1850 | 3830 |
| 2026-04-30 14:45 | 4.49 | 935 | 23300 (2017) | 100 (2006) | 1290 | 109 | 203 | 297 | 315 | 468 | 948 | 1120 | 1850 | 3830 |
| 2026-04-30 13:45 | 4.50 | 943 | 23300 (2017) | 100 (2006) | 1290 | 109 | 203 | 297 | 315 | 468 | 948 | 1120 | 1850 | 3830 |
| 2026-04-30 12:45 | 4.53 | 959 | 23300 (2017) | 100 (2006) | 1290 | 109 | 203 | 297 | 315 | 468 | 948 | 1120 | 1850 | 3830 |
| 2026-04-30 11:45 | 4.53 | 959 | 23300 (2017) | 100 (2006) | 1290 | 109 | 203 | 297 | 315 | 468 | 948 | 1120 | 1850 | 3830 |
| 2026-04-30 10:45 | 4.54 | 967 | 23300 (2017) | 100 (2006) | 1290 | 109 | 203 | 297 | 315 | 468 | 948 | 1120 | 1850 | 3830 |
| 2026-04-30 09:45 | 4.56 | 983 | 23300 (2017) | 100 (2006) | 1290 | 109 | 203 | 297 | 315 | 468 | 948 | 1120 | 1850 | 3830 |
| 2026-04-30 08:45 | 4.57 | 990 | 23300 (2017) | 100 (2006) | 1290 | 109 | 203 | 297 | 315 | 468 | 948 | 1120 | 1850 | 3830 |
| 2026-04-30 07:45 | 4.58 | 998 | 23300 (2017) | 100 (2006) | 1290 | 109 | 203 | 297 | 315 | 468 | 948 | 1120 | 1850 | 3830 |
| 2026-04-30 06:45 | 4.60 | 1010 | 23300 (2017) | 100 (2006) | 1290 | 109 | 203 | 297 | 315 | 468 | 948 | 1120 | 1850 | 3830 |
| 2026-04-30 05:45 | 4.61 | 1020 | 23300 (2017) | 100 (2006) | 1290 | 109 | 203 | 297 | 315 | 468 | 948 | 1120 | 1850 | 3830 |
| 2026-04-30 04:45 | 4.63 | 1030 | 23300 (2017) | 100 (2006) | 1290 | 109 | 203 | 297 | 315 | 468 | 948 | 1120 | 1850 | 3830 |
| 2026-04-30 03:45 | 4.64 | 1040 | 23300 (2017) | 100 (2006) | 1290 | 109 | 203 | 297 | 315 | 468 | 948 | 1120 | 1850 | 3830 |
| 2026-04-30 02:45 | 4.66 | 1060 | 23300 (2017) | 100 (2006) | 1290 | 109 | 203 | 297 | 315 | 468 | 948 | 1120 | 1850 | 3830 |
| 2026-04-30 01:45 | 4.67 | 1060 | 23300 (2017) | 100 (2006) | 1290 | 109 | 203 | 297 | 315 | 468 | 948 | 1120 | 1850 | 3830 |
| 2026-04-30 00:45 | 4.69 | 1080 | 23300 (2017) | 100 (2006) | 1290 | 109 | 203 | 297 | 315 | 468 | 948 | 1120 | 1850 | 3830 |
| 2026-04-29 23:45 | 4.72 | 1100 | 23300 (2017) | 100 (2006) | 1290 | 109 | 203 | 297 | 315 | 468 | 948 | 1120 | 1850 | 3830 |
| 2026-04-29 22:45 | 4.74 | 1120 | 10500 (2017) | 67 (2006) | 840 | 110 | 182 | 247 | 303 | 380 | 759 | 1060 | 1390 | 2860 |
| 2026-04-29 21:45 | 4.77 | 1130 | 10500 (2017) | 67 (2006) | 840 | 110 | 182 | 247 | 303 | 380 | 759 | 1060 | 1390 | 2860 |
| 2026-04-29 20:45 | 4.80 | 1150 | 10500 (2017) | 67 (2006) | 840 | 110 | 182 | 247 | 303 | 380 | 759 | 1060 | 1390 | 2860 |
| 2026-04-29 19:45 | 4.82 | 1170 | 10500 (2017) | 67 (2006) | 840 | 110 | 182 | 247 | 303 | 380 | 759 | 1060 | 1390 | 2860 |
| 2026-04-29 18:45 | 4.85 | 1190 | 10500 (2017) | 67 (2006) | 840 | 110 | 182 | 247 | 303 | 380 | 759 | 1060 | 1390 | 2860 |
| 2026-04-29 17:45 | 4.88 | 1210 | 10500 (2017) | 67 (2006) | 840 | 110 | 182 | 247 | 303 | 380 | 759 | 1060 | 1390 | 2860 |
| 2026-04-29 16:45 | 4.89 | 1220 | 10500 (2017) | 67 (2006) | 840 | 110 | 182 | 247 | 303 | 380 | 759 | 1060 | 1390 | 2860 |
| 2026-04-29 15:45 | 4.91 | 1230 | 10500 (2017) | 67 (2006) | 840 | 110 | 182 | 247 | 303 | 380 | 759 | 1060 | 1390 | 2860 |
| 2026-04-29 14:45 | 4.92 | 1240 | 10500 (2017) | 67 (2006) | 840 | 110 | 182 | 247 | 303 | 380 | 759 | 1060 | 1390 | 2860 |
| 2026-04-29 13:45 | 4.95 | 1260 | 10500 (2017) | 67 (2006) | 840 | 110 | 182 | 247 | 303 | 380 | 759 | 1060 | 1390 | 2860 |
| 2026-04-29 12:45 | 4.98 | 1290 | 10500 (2017) | 67 (2006) | 840 | 110 | 182 | 247 | 303 | 380 | 759 | 1060 | 1390 | 2860 |
| 2026-04-29 11:45 | 5.01 | 1310 | 10500 (2017) | 67 (2006) | 840 | 110 | 182 | 247 | 303 | 380 | 759 | 1060 | 1390 | 2860 |
| 2026-04-29 10:45 | 5.05 | 1340 | 10500 (2017) | 67 (2006) | 840 | 110 | 182 | 247 | 303 | 380 | 759 | 1060 | 1390 | 2860 |
| 2026-04-29 09:45 | 5.09 | 1370 | 10500 (2017) | 67 (2006) | 840 | 110 | 182 | 247 | 303 | 380 | 759 | 1060 | 1390 | 2860 |
| 2026-04-29 08:45 | 5.12 | 1390 | 10500 (2017) | 67 (2006) | 840 | 110 | 182 | 247 | 303 | 380 | 759 | 1060 | 1390 | 2860 |
| 2026-04-29 07:45 | 5.15 | 1410 | 10500 (2017) | 67 (2006) | 840 | 110 | 182 | 247 | 303 | 380 | 759 | 1060 | 1390 | 2860 |
| 2026-04-29 06:45 | 5.20 | 1440 | 10500 (2017) | 67 (2006) | 840 | 110 | 182 | 247 | 303 | 380 | 759 | 1060 | 1390 | 2860 |
| 2026-04-29 05:45 | 5.24 | 1470 | 10500 (2017) | 67 (2006) | 840 | 110 | 182 | 247 | 303 | 380 | 759 | 1060 | 1390 | 2860 |
| 2026-04-29 04:45 | 5.27 | 1490 | 10500 (2017) | 67 (2006) | 840 | 110 | 182 | 247 | 303 | 380 | 759 | 1060 | 1390 | 2860 |
| 2026-04-29 03:45 | 5.32 | 1530 | 10500 (2017) | 67 (2006) | 840 | 110 | 182 | 247 | 303 | 380 | 759 | 1060 | 1390 | 2860 |
| 2026-04-29 02:45 | 5.34 | 1540 | 10500 (2017) | 67 (2006) | 840 | 110 | 182 | 247 | 303 | 380 | 759 | 1060 | 1390 | 2860 |
| 2026-04-29 01:45 | 5.24 | 1470 | 10500 (2017) | 67 (2006) | 840 | 110 | 182 | 247 | 303 | 380 | 759 | 1060 | 1390 | 2860 |
| 2026-04-29 00:45 | 5.11 | 1380 | 10500 (2017) | 67 (2006) | 840 | 110 | 182 | 247 | 303 | 380 | 759 | 1060 | 1390 | 2860 |
| 2026-04-28 23:45 | 4.98 | 1290 | 10500 (2017) | 67 (2006) | 840 | 110 | 182 | 247 | 303 | 380 | 759 | 1060 | 1390 | 2860 |
| 2026-04-28 22:45 | 4.86 | 1200 | 2510 (2011) | 26 (2006) | 609 | 112 | 172 | 252 | 293 | 395 | 727 | 1050 | 1310 | 2120 |
| 2026-04-28 21:45 | 4.73 | 1110 | 2510 (2011) | 26 (2006) | 609 | 112 | 172 | 252 | 293 | 395 | 727 | 1050 | 1310 | 2120 |
| 2026-04-28 20:45 | 4.63 | 1030 | 2510 (2011) | 26 (2006) | 609 | 112 | 172 | 252 | 293 | 395 | 727 | 1050 | 1310 | 2120 |
| 2026-04-28 19:45 | 4.57 | 990 | 2510 (2011) | 26 (2006) | 609 | 112 | 172 | 252 | 293 | 395 | 727 | 1050 | 1310 | 2120 |
| 2026-04-28 18:45 | 4.53 | 959 | 2510 (2011) | 26 (2006) | 609 | 112 | 172 | 252 | 293 | 395 | 727 | 1050 | 1310 | 2120 |
| 2026-04-28 17:45 | 4.49 | 935 | 2510 (2011) | 26 (2006) | 609 | 112 | 172 | 252 | 293 | 395 | 727 | 1050 | 1310 | 2120 |
| 2026-04-28 16:45 | 4.49 | 935 | 2510 (2011) | 26 (2006) | 609 | 112 | 172 | 252 | 293 | 395 | 727 | 1050 | 1310 | 2120 |
| 2026-04-28 15:45 | 4.46 | 910 | 2510 (2011) | 26 (2006) | 609 | 112 | 172 | 252 | 293 | 395 | 727 | 1050 | 1310 | 2120 |
| 2026-04-28 14:45 | 4.48 | 926 | 2510 (2011) | 26 (2006) | 609 | 112 | 172 | 252 | 293 | 395 | 727 | 1050 | 1310 | 2120 |
| 2026-04-28 13:45 | 4.27 | 773 | 2510 (2011) | 26 (2006) | 609 | 112 | 172 | 252 | 293 | 395 | 727 | 1050 | 1310 | 2120 |
| 2026-04-28 12:45 | 4.18 | 709 | 2510 (2011) | 26 (2006) | 609 | 112 | 172 | 252 | 293 | 395 | 727 | 1050 | 1310 | 2120 |
| 2026-04-28 11:45 | 4.17 | 701 | 2510 (2011) | 26 (2006) | 609 | 112 | 172 | 252 | 293 | 395 | 727 | 1050 | 1310 | 2120 |
| 2026-04-28 10:45 | 4.17 | 701 | 2510 (2011) | 26 (2006) | 609 | 112 | 172 | 252 | 293 | 395 | 727 | 1050 | 1310 | 2120 |
| 2026-04-28 09:45 | 4.17 | 701 | 2510 (2011) | 26 (2006) | 609 | 112 | 172 | 252 | 293 | 395 | 727 | 1050 | 1310 | 2120 |
| 2026-04-28 08:45 | 4.18 | 709 | 2510 (2011) | 26 (2006) | 609 | 112 | 172 | 252 | 293 | 395 | 727 | 1050 | 1310 | 2120 |
| 2026-04-28 07:45 | 4.18 | 709 | 2510 (2011) | 26 (2006) | 609 | 112 | 172 | 252 | 293 | 395 | 727 | 1050 | 1310 | 2120 |
| 2026-04-28 06:45 | 4.19 | 717 | 2510 (2011) | 26 (2006) | 609 | 112 | 172 | 252 | 293 | 395 | 727 | 1050 | 1310 | 2120 |
| 2026-04-28 05:45 | 4.20 | 725 | 2510 (2011) | 26 (2006) | 609 | 112 | 172 | 252 | 293 | 395 | 727 | 1050 | 1310 | 2120 |
| 2026-04-28 04:45 | 4.20 | 725 | 2510 (2011) | 26 (2006) | 609 | 112 | 172 | 252 | 293 | 395 | 727 | 1050 | 1310 | 2120 |
| 2026-04-28 03:45 | 4.21 | 733 | 2510 (2011) | 26 (2006) | 609 | 112 | 172 | 252 | 293 | 395 | 727 | 1050 | 1310 | 2120 |
| 2026-04-28 02:45 | 4.22 | 741 | 2510 (2011) | 26 (2006) | 609 | 112 | 172 | 252 | 293 | 395 | 727 | 1050 | 1310 | 2120 |
| 2026-04-28 01:45 | 4.22 | 741 | 2510 (2011) | 26 (2006) | 609 | 112 | 172 | 252 | 293 | 395 | 727 | 1050 | 1310 | 2120 |
| 2026-04-28 00:45 | 4.24 | 749 | 2510 (2011) | 26 (2006) | 609 | 112 | 172 | 252 | 293 | 395 | 727 | 1050 | 1310 | 2120 |
| 2026-04-27 23:45 | 4.26 | 765 | 2510 (2011) | 26 (2006) | 609 | 112 | 172 | 252 | 293 | 395 | 727 | 1050 | 1310 | 2120 |
A total of 176 rows are displayed for years 1967 through 2025.